createdAt,value
2018-07-08T00:00:55.782Z,101482.75
2018-07-08T00:05:59.389Z,101485.00
2018-07-08T00:11:03.028Z,101484.17
2018-07-08T00:16:06.660Z,101485.59
2018-07-08T00:21:10.237Z,101480.58
2018-07-08T00:26:13.877Z,101477.53
2018-07-08T00:31:17.508Z,101468.45
2018-07-08T00:36:21.101Z,101465.09
2018-07-08T00:41:24.754Z,101472.09
2018-07-08T00:46:28.331Z,101473.89
2018-07-08T00:51:31.872Z,101477.95
2018-07-08T00:56:35.452Z,101481.56
2018-07-08T01:01:39.148Z,101483.14
2018-07-08T01:06:42.720Z,101495.56
2018-07-08T01:11:46.253Z,101494.70
2018-07-08T01:16:49.926Z,101497.11
2018-07-08T01:21:53.542Z,101501.29
2018-07-08T01:26:58.115Z,101503.84
2018-07-08T01:32:02.234Z,101510.31
2018-07-08T01:37:06.244Z,101513.03
2018-07-08T01:42:10.657Z,101513.94
2018-07-08T01:47:14.233Z,101517.56
2018-07-08T01:52:17.758Z,101520.23
2018-07-08T01:57:21.421Z,101521.17
2018-07-08T02:02:25.045Z,101521.22
2018-07-08T02:07:29.518Z,101523.00
2018-07-08T02:12:33.627Z,101521.69
2018-07-08T02:17:37.510Z,101522.20
2018-07-08T02:22:42.032Z,101520.48
2018-07-08T02:27:45.686Z,101517.06
2018-07-08T02:32:49.318Z,101524.05
2018-07-08T02:37:53.029Z,101524.96
2018-07-08T02:42:56.577Z,101530.62
2018-07-08T02:48:00.930Z,101541.51
2018-07-08T02:53:06.039Z,101531.48
2018-07-08T02:58:09.897Z,101529.37
2018-07-08T03:03:13.496Z,101531.54
2018-07-08T03:08:17.118Z,101540.27
2018-07-08T03:13:20.617Z,101542.47
2018-07-08T03:18:24.448Z,101541.60
2018-07-08T03:23:28.144Z,101547.30
2018-07-08T03:28:32.053Z,101546.92
2018-07-08T03:33:36.069Z,101551.28
2018-07-08T03:38:39.744Z,101556.50
2018-07-08T03:43:43.273Z,101563.92
2018-07-08T03:48:47.073Z,101568.70
2018-07-08T03:53:50.633Z,101577.69
2018-07-08T03:58:55.744Z,101569.41
2018-07-08T04:03:59.345Z,101562.41
2018-07-08T04:09:02.986Z,101564.16
2018-07-08T04:14:06.586Z,101564.12
2018-07-08T04:19:10.448Z,101574.06
2018-07-08T04:24:14.013Z,101574.95
2018-07-08T04:29:17.901Z,101565.80
2018-07-08T04:34:21.878Z,101568.84
2018-07-08T04:39:25.442Z,101570.17
2018-07-08T04:44:28.956Z,101575.27
2018-07-08T04:49:32.556Z,101577.72
2018-07-08T04:54:36.065Z,101586.98
2018-07-08T04:59:39.935Z,101577.86
2018-07-08T05:04:44.510Z,101587.09
2018-07-08T05:09:48.224Z,101591.58
2018-07-08T05:14:51.772Z,101595.33
2018-07-08T05:19:55.385Z,101591.52
2018-07-08T05:24:59.363Z,101598.73
2018-07-08T05:30:03.336Z,101603.75
2018-07-08T05:35:06.861Z,101604.80
2018-07-08T05:40:10.542Z,101602.45
2018-07-08T05:45:14.077Z,101598.48
2018-07-08T05:50:18.262Z,101597.27
2018-07-08T05:55:21.810Z,101599.28
2018-07-08T06:00:33.962Z,101606.23
2018-07-08T06:05:37.662Z,101596.89
2018-07-08T06:10:41.725Z,101597.55
2018-07-08T06:15:45.305Z,101595.33
2018-07-08T06:20:49.077Z,101596.23
2018-07-08T06:25:52.670Z,101596.63
2018-07-08T06:30:56.333Z,101590.98
2018-07-08T06:36:00.161Z,101589.61
2018-07-08T06:41:03.778Z,101573.89
2018-07-08T06:46:07.271Z,101576.47
2018-07-08T06:51:10.934Z,101581.45
2018-07-08T06:56:15.218Z,101580.09
2018-07-08T07:01:19.480Z,101578.75
2018-07-08T07:06:23.109Z,101584.67
2018-07-08T07:11:26.688Z,101585.94
2018-07-08T07:16:30.234Z,101588.09
2018-07-08T07:21:33.867Z,101591.55
2018-07-08T07:26:38.670Z,101584.75
2018-07-08T07:31:42.341Z,101588.77
2018-07-08T07:36:45.869Z,101585.83
2018-07-08T07:41:49.412Z,101590.13
2018-07-08T07:46:53.026Z,101593.32
2018-07-08T07:51:56.607Z,101588.53
2018-07-08T07:57:00.790Z,101581.62
2018-07-08T08:02:04.360Z,101577.09
2018-07-08T08:07:07.873Z,101571.56
2018-07-08T08:12:11.474Z,101583.58
2018-07-08T08:17:15.113Z,101579.87
2018-07-08T08:22:18.694Z,101586.57
2018-07-08T08:27:22.197Z,101582.74
2018-07-08T08:32:25.787Z,101576.53
2018-07-08T08:37:31.705Z,101575.83
2018-07-08T08:42:36.049Z,101574.27
2018-07-08T08:47:39.655Z,101575.92
2018-07-08T08:52:43.591Z,101573.41
2018-07-08T08:57:47.922Z,101571.55
2018-07-08T09:02:52.285Z,101565.02
2018-07-08T09:07:55.886Z,101566.09
2018-07-08T09:12:59.711Z,101563.39
2018-07-08T09:18:04.209Z,101566.72
2018-07-08T09:23:08.395Z,101556.69
2018-07-08T09:28:11.895Z,101553.58
2018-07-08T09:33:15.743Z,101565.41
2018-07-08T09:38:19.532Z,101567.53
2018-07-08T09:43:23.090Z,101574.95
2018-07-08T09:48:26.660Z,101569.44
2018-07-08T09:53:30.360Z,101565.75
2018-07-08T09:58:34.017Z,101565.48
2018-07-08T10:03:37.571Z,101572.41
2018-07-08T10:08:41.103Z,101569.29
2018-07-08T10:13:44.761Z,101564.41
2018-07-08T10:18:48.377Z,101558.27
2018-07-08T10:23:51.970Z,101555.17
2018-07-08T10:28:55.541Z,101554.88
2018-07-08T10:34:00.963Z,101563.30
2018-07-08T10:39:06.037Z,101561.11
2018-07-08T10:44:11.677Z,101553.27
2018-07-08T10:49:16.252Z,101542.72
2018-07-08T10:54:20.262Z,101544.38
2018-07-08T10:59:25.153Z,101534.00
2018-07-08T11:04:30.530Z,101523.66
2018-07-08T11:09:36.287Z,101538.34
2018-07-08T11:14:41.725Z,101531.69
2018-07-08T11:19:46.841Z,101522.76
2018-07-08T11:24:51.613Z,101519.17
2018-07-08T11:29:55.310Z,101512.72
2018-07-08T11:34:59.922Z,101509.23
2018-07-08T11:40:03.610Z,101516.98
2018-07-08T11:45:07.710Z,101509.59
2018-07-08T11:50:11.414Z,101506.17
2018-07-08T11:55:16.055Z,101504.13
2018-07-08T12:00:20.840Z,101505.67
2018-07-08T12:05:24.441Z,101500.62
2018-07-08T12:10:28.315Z,101506.88
2018-07-08T12:15:31.795Z,101499.23
2018-07-08T12:20:35.910Z,101500.35
2018-07-08T12:25:39.415Z,101492.62
2018-07-08T12:30:43.253Z,101490.22
2018-07-08T12:35:47.057Z,101493.33
2018-07-08T12:40:51.927Z,101487.18
2018-07-08T12:45:56.313Z,101477.45
2018-07-08T12:50:59.966Z,101476.72
2018-07-08T12:56:04.069Z,101490.28
2018-07-08T13:01:08.176Z,101482.91
2018-07-08T13:06:11.894Z,101467.94
2018-07-08T13:11:17.140Z,101474.25
2018-07-08T13:16:20.897Z,101471.63
2018-07-08T13:21:26.305Z,101473.54
2018-07-08T13:26:29.879Z,101468.84
2018-07-08T13:31:33.472Z,101474.12
2018-07-08T13:36:38.093Z,101468.02
2018-07-08T13:41:41.747Z,101462.19
2018-07-08T13:46:45.297Z,101459.61
2018-07-08T13:51:49.403Z,101454.73
2018-07-08T13:56:53.637Z,101449.88
2018-07-08T14:01:57.246Z,101457.31
2018-07-08T14:07:01.601Z,101453.87
2018-07-08T14:12:06.704Z,101460.84
2018-07-08T14:17:12.146Z,101447.36
2018-07-08T14:22:16.268Z,101450.98
2018-07-08T14:27:19.797Z,101450.02
2018-07-08T14:32:23.987Z,101434.45
2018-07-08T14:37:27.571Z,101435.62
2018-07-08T14:42:31.122Z,101430.33
2018-07-08T14:47:35.982Z,101433.86
2018-07-08T14:52:39.848Z,101417.15
2018-07-08T14:57:43.390Z,101425.59
2018-07-08T15:02:46.978Z,101420.91
2018-07-08T15:07:50.540Z,101414.91
2018-07-08T15:12:54.205Z,101411.02
2018-07-08T15:17:58.247Z,101413.27
2018-07-08T15:23:03.233Z,101410.27
2018-07-08T15:28:07.968Z,101412.03
2018-07-08T15:33:12.175Z,101403.25
2018-07-08T15:38:15.995Z,101396.42
2018-07-08T15:43:20.244Z,101397.69
2018-07-08T15:48:24.187Z,101393.27
2018-07-08T15:53:27.920Z,101396.00
2018-07-08T15:58:31.426Z,101400.50
2018-07-08T16:03:35.022Z,101396.09
2018-07-08T16:08:39.206Z,101394.55
2018-07-08T16:13:42.805Z,101385.64
2018-07-08T16:18:47.016Z,101387.29
2018-07-08T16:23:50.800Z,101392.97
2018-07-08T16:28:54.347Z,101384.75
2018-07-08T16:33:58.124Z,101401.48
2018-07-08T16:39:01.853Z,101387.44
2018-07-08T16:44:05.438Z,101386.28
2018-07-08T16:49:09.933Z,101381.93
2018-07-08T16:54:13.529Z,101384.45
2018-07-08T16:59:17.444Z,101386.54
2018-07-08T17:04:21.486Z,101378.00
2018-07-08T17:09:25.051Z,101373.66
2018-07-08T17:14:29.517Z,101374.39
2018-07-08T17:19:33.076Z,101377.37
2018-07-08T17:24:36.660Z,101367.30
2018-07-08T17:29:40.232Z,101373.48
2018-07-08T17:34:44.142Z,101374.22
2018-07-08T17:39:47.686Z,101374.22
2018-07-08T17:44:51.277Z,101379.84
2018-07-08T17:49:55.346Z,101378.66
2018-07-08T17:54:59.576Z,101366.97
2018-07-08T18:00:03.525Z,101368.72
2018-07-08T18:05:09.445Z,101374.54
2018-07-08T18:10:13.522Z,101369.18
2018-07-08T18:15:19.363Z,101373.25
2018-07-08T18:20:22.885Z,101377.19
2018-07-08T18:25:28.084Z,101385.72
2018-07-08T18:30:42.691Z,101381.84
2018-07-08T18:35:46.898Z,101380.52
2018-07-08T18:40:51.290Z,101384.80
2018-07-08T18:45:55.720Z,101388.40
2018-07-08T18:50:59.908Z,101386.87
2018-07-08T18:56:03.578Z,101381.30
2018-07-08T19:01:07.286Z,101390.09
2018-07-08T19:06:12.226Z,101386.41
2018-07-08T19:11:15.764Z,101394.31
2018-07-08T19:16:20.392Z,101393.18
2018-07-08T19:21:23.959Z,101403.13
2018-07-08T19:26:27.645Z,101409.13
2018-07-08T19:31:32.349Z,101409.91
2018-07-08T19:36:38.128Z,101414.97
2018-07-08T19:41:42.289Z,101413.98
2018-07-08T19:46:46.832Z,101415.30
2018-07-08T19:51:50.711Z,101419.83
2018-07-08T19:56:54.541Z,101422.84
2018-07-08T20:01:58.450Z,101426.89
2018-07-08T20:07:02.380Z,101428.75
2018-07-08T20:12:06.421Z,101429.38
2018-07-08T20:17:11.420Z,101430.69
2018-07-08T20:22:18.088Z,101429.58
2018-07-08T20:27:23.085Z,101438.62
2018-07-08T20:32:27.677Z,101436.75
2018-07-08T20:37:31.619Z,101444.48
2018-07-08T20:42:37.073Z,101444.75
2018-07-08T20:47:40.925Z,101455.18
2018-07-08T20:52:45.271Z,101456.75
2018-07-08T20:57:50.419Z,101458.36
2018-07-08T21:02:54.629Z,101461.20
2018-07-08T21:07:59.422Z,101462.72
2018-07-08T21:13:03.146Z,101473.08
2018-07-08T21:18:06.973Z,101474.23
2018-07-08T21:23:10.519Z,101467.70
2018-07-08T21:28:16.024Z,101467.59
2018-07-08T21:33:19.546Z,101460.08
2018-07-08T21:38:23.403Z,101465.50
2018-07-08T21:43:28.124Z,101469.98
2018-07-08T21:48:33.027Z,101470.23
2018-07-08T21:53:37.516Z,101479.29
2018-07-08T21:58:43.126Z,101487.52
2018-07-08T22:03:48.565Z,101487.19
2018-07-08T22:08:52.767Z,101488.72
2018-07-08T22:13:57.674Z,101489.99
2018-07-08T22:19:03.050Z,101484.79
2018-07-08T22:24:06.693Z,101482.91
2018-07-08T22:29:11.099Z,101484.46
2018-07-08T22:34:14.906Z,101482.13
2018-07-08T22:39:18.482Z,101482.45
2018-07-08T22:44:23.031Z,101479.88
2018-07-08T22:49:27.104Z,101477.75
2018-07-08T22:54:30.821Z,101482.91
2018-07-08T22:59:44.479Z,101491.77
2018-07-08T23:04:49.822Z,101479.81
2018-07-08T23:09:53.453Z,101482.14
2018-07-08T23:14:57.031Z,101478.05
2018-07-08T23:20:00.990Z,101490.42
2018-07-08T23:25:04.532Z,101481.61
2018-07-08T23:30:11.425Z,101493.47
2018-07-08T23:35:15.009Z,101495.50
2018-07-08T23:40:18.600Z,101493.56
2018-07-08T23:45:23.073Z,101485.10
2018-07-08T23:50:27.623Z,101493.92
2018-07-08T23:55:31.587Z,101489.86
